createdAt,value
2017-04-11T00:00:41.573Z,59.58
2017-04-11T00:01:41.653Z,55.35
2017-04-11T00:02:41.521Z,63.85
2017-04-11T00:03:42.053Z,55.35
2017-04-11T00:04:42.146Z,59.03
2017-04-11T00:05:48.751Z,57.52
2017-04-11T00:06:48.692Z,61.55
2017-04-11T00:07:48.669Z,65.83
2017-04-11T00:08:48.672Z,59.82
2017-04-11T00:09:49.224Z,68.15
2017-04-11T00:10:49.249Z,66.95
2017-04-11T00:11:49.285Z,64.63
2017-04-11T00:12:49.261Z,68.17
2017-04-11T00:13:49.782Z,62.07
2017-04-11T00:14:50.195Z,65.03
2017-04-11T00:15:50.156Z,69.52
2017-04-11T00:16:50.160Z,67.95
2017-04-11T00:17:50.115Z,64.17
2017-04-11T00:18:50.120Z,66.05
2017-04-11T00:19:50.399Z,71.58
2017-04-11T00:20:50.386Z,68.82
2017-04-11T00:21:50.391Z,70.73
2017-04-11T00:22:50.343Z,68.05
2017-04-11T00:23:51.170Z,62.23
2017-04-11T00:24:52.186Z,71.17
2017-04-11T00:25:52.174Z,64.73
2017-04-11T00:26:52.141Z,61.90
2017-04-11T00:27:52.115Z,67.87
2017-04-11T00:28:52.818Z,67.67
2017-04-11T00:29:52.848Z,72.95
2017-04-11T00:30:52.883Z,65.53
2017-04-11T00:31:52.874Z,68.62
2017-04-11T00:32:52.891Z,64.47
2017-04-11T00:33:52.853Z,63.22
2017-04-11T00:34:52.938Z,69.53
2017-04-11T00:35:52.919Z,67.53
2017-04-11T00:36:52.863Z,65.23
2017-04-11T00:37:52.885Z,68.22
2017-04-11T00:38:52.859Z,62.12
2017-04-11T00:39:53.010Z,62.98
2017-04-11T00:40:53.689Z,60.65
2017-04-11T00:41:53.677Z,63.13
2017-04-11T00:42:53.618Z,63.80
2017-04-11T00:43:53.610Z,70.03
2017-04-11T00:44:53.837Z,72.77
2017-04-11T00:45:53.782Z,76.02
2017-04-11T00:46:53.738Z,75.27
2017-04-11T00:47:53.673Z,72.62
2017-04-11T00:48:53.684Z,71.23
2017-04-11T00:49:53.488Z,64.58
2017-04-11T00:50:54.078Z,62.70
2017-04-11T00:51:54.158Z,72.85
2017-04-11T00:52:54.133Z,71.47
2017-04-11T00:53:54.136Z,64.02
2017-04-11T00:54:53.924Z,70.03
2017-04-11T00:55:54.028Z,75.48
2017-04-11T00:56:54.894Z,67.38
2017-04-11T00:57:54.838Z,68.92
2017-04-11T00:58:54.854Z,74.62
2017-04-11T00:59:55.383Z,67.03
2017-04-11T01:00:56.312Z,72.25
2017-04-11T01:01:57.013Z,64.90
2017-04-11T01:02:56.988Z,68.72
2017-04-11T01:03:56.968Z,62.60
2017-04-11T01:04:56.940Z,71.57
2017-04-11T01:05:57.935Z,68.42
2017-04-11T01:06:57.915Z,69.72
2017-04-11T01:07:57.879Z,68.17
2017-04-11T01:08:58.645Z,69.10
2017-04-11T01:09:58.640Z,64.53
2017-04-11T01:10:59.211Z,69.25
2017-04-11T01:11:59.217Z,65.33
2017-04-11T01:12:59.220Z,73.43
2017-04-11T01:13:59.925Z,71.30
2017-04-11T01:14:59.892Z,63.02
2017-04-11T01:15:59.888Z,71.32
2017-04-11T01:17:00.415Z,69.32
2017-04-11T01:18:00.204Z,69.25
2017-04-11T01:19:00.009Z,73.97
2017-04-11T01:20:00.693Z,64.27
2017-04-11T01:21:01.218Z,68.55
2017-04-11T01:22:00.882Z,68.32
2017-04-11T01:23:00.876Z,70.07
2017-04-11T01:24:01.014Z,73.27
2017-04-11T01:25:01.754Z,74.48
2017-04-11T01:26:02.147Z,67.35
2017-04-11T01:27:02.087Z,74.43
2017-04-11T01:28:02.186Z,66.23
2017-04-11T01:29:02.547Z,68.58
2017-04-11T01:30:02.532Z,67.08
2017-04-11T01:31:03.186Z,65.60
2017-04-11T01:32:03.188Z,61.55
2017-04-11T01:33:03.226Z,64.85
2017-04-11T01:34:02.952Z,65.47
2017-04-11T01:35:02.958Z,76.38
2017-04-11T01:36:03.455Z,65.98
2017-04-11T01:37:04.721Z,74.13
2017-04-11T01:38:04.940Z,65.83
2017-04-11T01:39:05.484Z,70.13
2017-04-11T01:40:05.499Z,72.25
2017-04-11T01:41:05.834Z,74.77
2017-04-11T01:42:05.765Z,73.62
2017-04-11T01:43:05.864Z,76.02
2017-04-11T01:44:07.749Z,68.73
2017-04-11T01:45:08.029Z,71.43
2017-04-11T01:46:08.620Z,80.15
2017-04-11T01:47:08.951Z,77.62
2017-04-11T01:48:09.659Z,76.65
2017-04-11T01:49:09.665Z,88.45
2017-04-11T01:50:09.717Z,78.00
2017-04-11T01:51:10.087Z,79.70
2017-04-11T01:52:10.079Z,73.43
2017-04-11T01:53:09.838Z,79.42
2017-04-11T01:54:09.620Z,80.80
2017-04-11T01:55:10.386Z,77.82
2017-04-11T01:56:11.642Z,79.88
2017-04-11T01:57:11.765Z,78.77
2017-04-11T01:58:12.533Z,71.65
2017-04-11T01:59:12.612Z,83.43
2017-04-11T02:00:13.439Z,78.07
2017-04-11T02:01:14.797Z,69.97
2017-04-11T02:02:15.524Z,71.43
2017-04-11T02:03:15.536Z,70.92
2017-04-11T02:04:15.596Z,65.08
2017-04-11T02:05:15.441Z,80.73
2017-04-11T02:06:16.162Z,74.90
2017-04-11T02:07:16.203Z,84.30
2017-04-11T02:08:19.431Z,77.83
2017-04-11T02:09:19.862Z,72.75
2017-04-11T02:10:20.182Z,78.70
2017-04-11T02:11:20.555Z,76.45
2017-04-11T02:12:20.578Z,81.63
2017-04-11T02:13:20.622Z,75.43
2017-04-11T02:14:20.413Z,74.53
2017-04-11T02:15:21.099Z,76.85
2017-04-11T02:16:21.415Z,66.70
2017-04-11T02:17:21.401Z,75.10
2017-04-11T02:18:21.372Z,82.88
2017-04-11T02:19:21.290Z,80.05
2017-04-11T02:20:21.224Z,66.78
2017-04-11T02:21:21.917Z,72.72
2017-04-11T02:22:21.943Z,76.38
2017-04-11T02:23:25.075Z,76.08
2017-04-11T02:24:25.316Z,71.25
2017-04-11T02:25:25.323Z,66.25
2017-04-11T02:26:25.876Z,76.55
2017-04-11T02:27:25.611Z,71.07
2017-04-11T02:28:25.623Z,78.90
2017-04-11T02:29:25.558Z,75.67
2017-04-11T02:30:25.914Z,76.30
2017-04-11T02:31:27.393Z,80.72
2017-04-11T02:32:27.517Z,77.25
2017-04-11T02:33:27.587Z,73.40
2017-04-11T02:34:28.281Z,75.90
2017-04-11T02:35:28.892Z,75.63
2017-04-11T02:36:29.655Z,84.62
2017-04-11T02:37:30.446Z,65.53
2017-04-11T02:38:31.509Z,66.47
2017-04-11T02:39:31.552Z,69.72
2017-04-11T02:40:31.605Z,70.18
2017-04-11T02:41:31.938Z,78.50
2017-04-11T02:42:32.007Z,79.53
2017-04-11T02:43:33.650Z,73.65
2017-04-11T02:44:33.776Z,66.33
2017-04-11T02:45:33.861Z,62.32
2017-04-11T02:46:34.605Z,67.58
2017-04-11T02:47:34.597Z,70.38
2017-04-11T02:48:34.911Z,73.87
2017-04-11T02:49:34.851Z,69.55
2017-04-11T02:50:34.877Z,74.87
2017-04-11T02:51:35.236Z,57.85
2017-04-11T02:52:35.177Z,71.97
2017-04-11T02:53:35.941Z,68.25
2017-04-11T02:54:35.906Z,62.45
2017-04-11T02:55:36.662Z,71.08
2017-04-11T02:56:36.635Z,64.85
2017-04-11T02:57:36.672Z,62.63
2017-04-11T02:58:36.647Z,81.72
2017-04-11T02:59:36.452Z,63.58
2017-04-11T03:00:38.945Z,58.97
2017-04-11T03:01:38.995Z,66.85
2017-04-11T03:02:38.969Z,70.17
2017-04-11T03:03:38.963Z,66.03
2017-04-11T03:04:38.697Z,60.77
2017-04-11T03:05:39.187Z,76.82
2017-04-11T03:06:39.525Z,66.70
2017-04-11T03:07:39.507Z,67.28
2017-04-11T03:08:39.463Z,66.68
2017-04-11T03:09:40.569Z,66.03
2017-04-11T03:10:40.602Z,73.98
2017-04-11T03:11:40.834Z,66.68
2017-04-11T03:12:40.797Z,61.90
2017-04-11T03:13:40.799Z,76.20
2017-04-11T03:14:40.854Z,61.85
2017-04-11T03:15:40.893Z,57.07
2017-04-11T03:16:41.607Z,68.33
2017-04-11T03:17:41.541Z,64.12
2017-04-11T03:18:41.317Z,69.38
2017-04-11T03:19:41.384Z,63.37
2017-04-11T03:20:41.831Z,75.58
2017-04-11T03:21:41.815Z,69.30
2017-04-11T03:22:41.823Z,70.72
2017-04-11T03:23:41.865Z,70.38
2017-04-11T03:24:42.581Z,60.60
2017-04-11T03:25:43.082Z,63.37
2017-04-11T03:26:43.444Z,72.70
2017-04-11T03:27:43.359Z,67.30
2017-04-11T03:28:43.295Z,65.27
2017-04-11T03:29:43.307Z,70.90
2017-04-11T03:30:43.303Z,68.47
2017-04-11T03:31:45.463Z,68.08
2017-04-11T03:32:45.409Z,62.77
2017-04-11T03:33:45.377Z,66.17
2017-04-11T03:34:45.491Z,63.45
2017-04-11T03:35:45.513Z,67.97
2017-04-11T03:36:46.776Z,70.17
2017-04-11T03:37:46.614Z,74.02
2017-04-11T03:38:46.619Z,73.70
2017-04-11T03:39:47.306Z,77.55
2017-04-11T03:40:47.883Z,70.83
2017-04-11T03:41:48.243Z,67.32
2017-04-11T03:42:47.958Z,71.35
2017-04-11T03:43:48.100Z,73.93
2017-04-11T03:44:48.352Z,75.72
2017-04-11T03:45:48.331Z,68.20
2017-04-11T03:46:48.456Z,67.08
2017-04-11T03:47:49.149Z,66.42
2017-04-11T03:48:49.090Z,63.30
2017-04-11T03:49:48.840Z,54.78
2017-04-11T03:50:48.643Z,66.92
2017-04-11T03:51:49.774Z,67.57
2017-04-11T03:52:49.763Z,55.30
2017-04-11T03:53:50.520Z,55.70
2017-04-11T03:54:50.667Z,68.83
2017-04-11T03:55:50.659Z,57.47
2017-04-11T03:56:50.899Z,60.67
2017-04-11T03:57:50.858Z,48.57
2017-04-11T03:58:51.235Z,46.68
2017-04-11T03:59:51.330Z,56.00
2017-04-11T04:00:51.384Z,46.80
2017-04-11T04:01:51.468Z,52.37
2017-04-11T04:02:51.467Z,56.85
2017-04-11T04:03:52.182Z,50.47
2017-04-11T04:04:52.889Z,50.67
2017-04-11T04:05:53.179Z,47.18
2017-04-11T04:06:53.525Z,45.75
2017-04-11T04:07:53.551Z,47.33
2017-04-11T04:08:53.502Z,42.13
2017-04-11T04:09:53.792Z,45.53
2017-04-11T04:10:53.920Z,55.75
2017-04-11T04:11:54.444Z,49.80
2017-04-11T04:12:56.092Z,48.20
2017-04-11T04:13:58.378Z,41.30
2017-04-11T04:14:58.415Z,44.08
2017-04-11T04:15:58.427Z,39.72
2017-04-11T04:16:58.589Z,44.25
2017-04-11T04:17:58.560Z,38.95
2017-04-11T04:18:58.641Z,52.02
2017-04-11T04:19:58.595Z,42.83
2017-04-11T04:21:00.169Z,44.65
2017-04-11T04:22:00.593Z,38.63
2017-04-11T04:23:01.353Z,41.25
2017-04-11T04:24:18.112Z,41.25
2017-04-11T04:25:18.103Z,37.53
2017-04-11T04:26:18.007Z,44.83
2017-04-11T04:27:18.142Z,42.80
2017-04-11T04:28:18.209Z,42.77
2017-04-11T04:29:18.197Z,47.65
2017-04-11T04:30:18.150Z,54.40
2017-04-11T04:31:18.092Z,44.92
2017-04-11T04:32:18.166Z,33.88
2017-04-11T04:33:18.159Z,40.60
2017-04-11T04:34:18.132Z,39.18
2017-04-11T04:35:18.039Z,36.37
2017-04-11T04:36:18.007Z,41.43
2017-04-11T04:37:18.374Z,49.42
2017-04-11T04:38:18.325Z,37.33
2017-04-11T04:39:18.114Z,40.75
2017-04-11T04:40:17.918Z,38.75
2017-04-11T04:41:17.679Z,36.60
2017-04-11T04:42:18.614Z,37.22
2017-04-11T04:43:18.812Z,31.17
2017-04-11T04:44:19.445Z,33.93
2017-04-11T04:45:19.430Z,40.18
2017-04-11T04:46:19.403Z,43.67
2017-04-11T04:47:19.531Z,33.92
2017-04-11T04:48:19.436Z,36.62
2017-04-11T04:49:19.382Z,33.67
2017-04-11T04:50:19.334Z,40.87
2017-04-11T04:51:19.322Z,36.08
2017-04-11T04:52:19.683Z,39.83
2017-04-11T04:53:19.748Z,33.45
2017-04-11T04:54:19.692Z,32.32
2017-04-11T04:55:23.158Z,32.82
2017-04-11T04:56:23.123Z,28.47
2017-04-11T04:57:23.824Z,32.38
2017-04-11T04:58:24.047Z,32.87
2017-04-11T04:59:23.978Z,36.42
2017-04-11T05:00:23.925Z,35.93
2017-04-11T05:01:23.653Z,30.83
2017-04-11T05:02:23.700Z,35.38
2017-04-11T05:03:23.854Z,32.77
2017-04-11T05:04:23.778Z,36.97
2017-04-11T05:05:23.735Z,30.90
2017-04-11T05:06:23.700Z,28.40
2017-04-11T05:07:24.424Z,29.40
2017-04-11T05:08:25.408Z,35.05
2017-04-11T05:09:25.411Z,41.38
2017-04-11T05:10:25.376Z,28.85
2017-04-11T05:11:25.426Z,31.95
2017-04-11T05:12:25.417Z,30.40
2017-04-11T05:13:25.673Z,29.73
2017-04-11T05:14:25.647Z,37.12
2017-04-11T05:15:25.638Z,35.57
2017-04-11T05:16:25.573Z,32.25
2017-04-11T05:17:25.577Z,36.85
2017-04-11T05:18:25.906Z,29.98
2017-04-11T05:19:25.589Z,37.78
2017-04-11T05:20:25.712Z,29.62
2017-04-11T05:21:25.666Z,26.40
2017-04-11T05:22:25.645Z,31.45
2017-04-11T05:23:25.550Z,32.60
2017-04-11T05:24:26.266Z,28.88
2017-04-11T05:25:27.021Z,27.88
2017-04-11T05:26:26.971Z,36.12
2017-04-11T05:27:26.920Z,36.27
2017-04-11T05:28:27.208Z,30.30
2017-04-11T05:29:27.884Z,37.63
2017-04-11T05:30:27.877Z,33.95
2017-04-11T05:31:29.747Z,31.02
2017-04-11T05:32:29.798Z,35.42
2017-04-11T05:33:30.606Z,33.00
2017-04-11T05:34:30.924Z,34.17
2017-04-11T05:35:30.976Z,27.03
2017-04-11T05:36:30.964Z,32.73
2017-04-11T05:37:31.192Z,31.25
2017-04-11T05:38:31.563Z,32.22
2017-04-11T05:39:31.531Z,27.50
2017-04-11T05:40:32.222Z,27.83
2017-04-11T05:41:32.266Z,30.00
2017-04-11T05:42:32.221Z,26.75
2017-04-11T05:43:33.256Z,31.40
2017-04-11T05:44:33.202Z,34.12
2017-04-11T05:45:33.165Z,30.60
2017-04-11T05:46:33.168Z,30.83
2017-04-11T05:47:33.142Z,28.52
2017-04-11T05:48:33.455Z,29.33
2017-04-11T05:49:33.553Z,32.40
2017-04-11T05:50:33.591Z,30.87
2017-04-11T05:51:33.763Z,23.73
2017-04-11T05:52:33.737Z,36.50
2017-04-11T05:53:33.995Z,34.33
2017-04-11T05:54:33.957Z,31.83
2017-04-11T05:55:33.928Z,32.32
2017-04-11T05:56:33.904Z,32.18
2017-04-11T05:57:33.915Z,33.48
2017-04-11T05:58:34.289Z,32.85
2017-04-11T05:59:34.268Z,25.93
2017-04-11T06:00:34.246Z,29.62
2017-04-11T06:01:34.252Z,34.60
2017-04-11T06:02:34.271Z,35.33
2017-04-11T06:03:34.543Z,30.55
2017-04-11T06:04:34.472Z,29.98
2017-04-11T06:05:34.460Z,25.97
2017-04-11T06:06:34.364Z,32.23
2017-04-11T06:07:34.135Z,30.38
2017-04-11T06:08:35.135Z,30.02
2017-04-11T06:09:35.837Z,28.30
2017-04-11T06:10:35.846Z,28.25
2017-04-11T06:11:35.791Z,29.25
2017-04-11T06:12:35.571Z,36.18
2017-04-11T06:13:36.556Z,28.17
2017-04-11T06:14:36.516Z,28.55
2017-04-11T06:15:36.458Z,30.18
2017-04-11T06:16:36.222Z,30.93
2017-04-11T06:17:36.112Z,29.53
2017-04-11T06:18:37.195Z,30.37
2017-04-11T06:19:37.160Z,42.42
2017-04-11T06:20:37.132Z,31.37
2017-04-11T06:21:37.085Z,42.55
2017-04-11T06:22:37.034Z,28.62
2017-04-11T06:23:37.346Z,30.00
2017-04-11T06:24:37.354Z,27.47
2017-04-11T06:25:37.358Z,32.83
2017-04-11T06:26:37.335Z,31.87
2017-04-11T06:27:37.321Z,27.20
2017-04-11T06:28:37.688Z,30.75
2017-04-11T06:29:37.662Z,27.23
2017-04-11T06:30:37.644Z,27.87
2017-04-11T06:31:37.595Z,34.57
2017-04-11T06:32:37.665Z,36.17
2017-04-11T06:33:38.012Z,32.03
2017-04-11T06:34:37.980Z,37.43
2017-04-11T06:35:37.927Z,33.70
2017-04-11T06:36:37.947Z,35.13
2017-04-11T06:37:37.672Z,40.60
2017-04-11T06:38:37.676Z,31.23
2017-04-11T06:39:37.719Z,24.23
2017-04-11T06:40:37.782Z,26.43
2017-04-11T06:41:37.790Z,24.70
2017-04-11T06:42:38.550Z,28.62
2017-04-11T06:43:38.921Z,27.78
2017-04-11T06:44:38.983Z,27.78
2017-04-11T06:45:38.943Z,24.05
2017-04-11T06:46:38.746Z,30.70
2017-04-11T06:47:38.675Z,28.45
2017-04-11T06:48:39.048Z,29.35
2017-04-11T06:49:39.026Z,30.65
2017-04-11T06:50:38.986Z,35.57
2017-04-11T06:51:38.973Z,23.77
2017-04-11T06:52:39.618Z,29.67
2017-04-11T06:53:39.613Z,27.45
2017-04-11T06:54:39.621Z,25.80
2017-04-11T06:55:39.609Z,28.60
2017-04-11T06:56:39.422Z,23.45
2017-04-11T06:57:40.178Z,24.77
2017-04-11T06:58:40.527Z,25.43
2017-04-11T06:59:40.469Z,19.75
2017-04-11T07:00:40.600Z,23.23
2017-04-11T07:01:40.596Z,18.73
2017-04-11T07:02:40.697Z,27.93
2017-04-11T07:03:41.081Z,19.40
2017-04-11T07:04:41.497Z,18.67
2017-04-11T07:05:41.438Z,24.67
2017-04-11T07:06:41.221Z,24.87
2017-04-11T07:07:41.897Z,20.40
2017-04-11T07:08:42.238Z,18.98
2017-04-11T07:09:42.271Z,21.97
2017-04-11T07:10:42.385Z,18.45
2017-04-11T07:11:42.393Z,20.75
2017-04-11T07:12:42.111Z,24.13
2017-04-11T07:13:42.562Z,28.45
2017-04-11T07:14:42.570Z,21.98
2017-04-11T07:15:42.404Z,21.87
2017-04-11T07:16:43.123Z,20.62
2017-04-11T07:17:43.089Z,20.45
2017-04-11T07:18:43.427Z,19.67
2017-04-11T07:19:43.413Z,23.95
2017-04-11T07:20:43.383Z,22.63
2017-04-11T07:21:43.364Z,23.12
2017-04-11T07:22:43.381Z,23.60
2017-04-11T07:23:43.765Z,26.23
2017-04-11T07:24:43.596Z,28.50
2017-04-11T07:25:43.392Z,22.93
2017-04-11T07:26:43.186Z,32.37
2017-04-11T07:27:43.151Z,23.92
2017-04-11T07:28:43.110Z,26.57
2017-04-11T07:29:43.376Z,28.52
2017-04-11T07:30:43.339Z,25.10
2017-04-11T07:31:43.287Z,27.53
2017-04-11T07:32:43.234Z,40.17
2017-04-11T07:33:43.331Z,24.15
2017-04-11T07:34:44.431Z,26.80
2017-04-11T07:35:44.415Z,22.15
2017-04-11T07:36:44.385Z,33.48
2017-04-11T07:37:44.429Z,24.63
2017-04-11T07:38:44.412Z,26.97
2017-04-11T07:39:44.770Z,24.08
2017-04-11T07:40:44.785Z,30.98
2017-04-11T07:41:44.753Z,24.65
2017-04-11T07:42:44.616Z,28.17
2017-04-11T07:43:45.307Z,28.18
2017-04-11T07:44:45.616Z,35.22
2017-04-11T07:45:46.273Z,32.33
2017-04-11T07:46:46.347Z,26.65
2017-04-11T07:47:46.348Z,23.08
2017-04-11T07:48:46.353Z,29.15
2017-04-11T07:49:46.681Z,25.47
2017-04-11T07:50:46.659Z,22.68
2017-04-11T07:51:47.490Z,25.35
2017-04-11T07:52:47.442Z,29.37
2017-04-11T07:53:47.417Z,28.13
2017-04-11T07:54:47.729Z,29.35
2017-04-11T07:55:47.660Z,20.18
2017-04-11T07:56:48.370Z,23.45
2017-04-11T07:57:48.312Z,24.65
2017-04-11T07:58:48.257Z,30.75
2017-04-11T07:59:48.577Z,23.65
2017-04-11T08:00:48.607Z,27.73
2017-04-11T08:01:49.385Z,29.25
2017-04-11T08:02:49.388Z,27.42
2017-04-11T08:03:49.373Z,28.02
2017-04-11T08:04:49.472Z,23.92
2017-04-11T08:05:49.397Z,23.28
2017-04-11T08:06:49.438Z,21.33
2017-04-11T08:07:49.412Z,21.70
2017-04-11T08:08:49.361Z,25.60
2017-04-11T08:09:49.771Z,23.47
2017-04-11T08:10:49.733Z,25.00
2017-04-11T08:11:49.739Z,21.73
2017-04-11T08:12:49.785Z,24.48
2017-04-11T08:13:49.510Z,18.37
2017-04-11T08:14:49.712Z,23.13
2017-04-11T08:15:49.769Z,22.87
2017-04-11T08:16:49.752Z,22.97
2017-04-11T08:17:49.753Z,21.50
2017-04-11T08:18:49.757Z,23.05
2017-04-11T08:19:50.026Z,15.75
2017-04-11T08:20:50.239Z,23.78
2017-04-11T08:21:49.975Z,24.93
2017-04-11T08:22:49.912Z,23.98
2017-04-11T08:23:49.879Z,18.45
2017-04-11T08:24:50.975Z,22.62
2017-04-11T08:25:50.985Z,30.03
2017-04-11T08:26:51.016Z,23.18
2017-04-11T08:27:50.995Z,25.85
2017-04-11T08:28:51.003Z,24.27
2017-04-11T08:29:51.312Z,19.37
2017-04-11T08:30:51.341Z,29.23
2017-04-11T08:31:51.370Z,24.05
2017-04-11T08:32:51.448Z,22.95
2017-04-11T08:33:51.483Z,29.83
2017-04-11T08:34:51.780Z,29.33
2017-04-11T08:35:51.955Z,31.10
2017-04-11T08:36:51.904Z,21.93
2017-04-11T08:37:51.909Z,24.52
2017-04-11T08:38:51.933Z,29.68
2017-04-11T08:39:52.298Z,26.77
2017-04-11T08:40:52.290Z,21.55
2017-04-11T08:41:52.310Z,26.00
2017-04-11T08:42:52.287Z,27.97
2017-04-11T08:43:52.257Z,23.68
2017-04-11T08:44:52.585Z,24.58
2017-04-11T08:45:52.573Z,21.68
2017-04-11T08:46:52.571Z,27.67
2017-04-11T08:47:53.325Z,22.32
2017-04-11T08:48:53.282Z,21.20
2017-04-11T08:49:53.593Z,22.92
2017-04-11T08:50:53.593Z,17.07
2017-04-11T08:51:53.634Z,22.67
2017-04-11T08:52:54.387Z,24.18
2017-04-11T08:53:54.366Z,19.20
2017-04-11T08:54:54.768Z,20.07
2017-04-11T08:55:54.815Z,24.33
2017-04-11T08:56:54.812Z,27.60
2017-04-11T08:57:54.820Z,26.10
2017-04-11T08:58:55.143Z,19.43
2017-04-11T08:59:55.496Z,20.38
2017-04-11T09:00:55.516Z,23.02
2017-04-11T09:01:55.603Z,21.25
2017-04-11T09:02:55.590Z,20.08
2017-04-11T09:03:55.629Z,21.12
2017-04-11T09:04:55.938Z,20.00
2017-04-11T09:05:56.206Z,18.47
2017-04-11T09:06:56.170Z,15.33
2017-04-11T09:07:56.136Z,29.08
2017-04-11T09:08:56.074Z,23.20
2017-04-11T09:09:56.359Z,18.70
2017-04-11T09:10:56.110Z,25.37
2017-04-11T09:11:55.858Z,19.82
2017-04-11T09:12:55.826Z,25.57
2017-04-11T09:13:55.818Z,22.60
2017-04-11T09:14:55.810Z,23.12
2017-04-11T09:15:57.035Z,27.78
2017-04-11T09:16:56.777Z,20.98
2017-04-11T09:17:58.880Z,24.52
2017-04-11T09:18:58.879Z,23.70
2017-04-11T09:19:58.930Z,24.65
2017-04-11T09:20:59.039Z,23.03
2017-04-11T09:21:59.138Z,18.35
2017-04-11T09:22:59.169Z,19.45
2017-04-11T09:23:59.217Z,22.50
2017-04-11T09:24:59.253Z,19.25
2017-04-11T09:25:59.370Z,23.20
2017-04-11T09:26:59.405Z,22.90
2017-04-11T09:27:59.365Z,22.48
2017-04-11T09:28:59.182Z,28.27
2017-04-11T09:29:59.155Z,27.63
2017-04-11T09:30:59.468Z,23.07
2017-04-11T09:31:59.438Z,17.67
2017-04-11T09:32:59.447Z,22.98
2017-04-11T09:33:59.389Z,24.38
2017-04-11T09:34:59.425Z,20.85
2017-04-11T09:35:59.560Z,22.30
2017-04-11T09:36:59.588Z,23.32
2017-04-11T09:37:59.548Z,16.13
2017-04-11T09:38:59.274Z,22.33
2017-04-11T09:39:59.249Z,21.37
2017-04-11T09:40:59.550Z,26.08
2017-04-11T09:41:59.533Z,34.30
2017-04-11T09:42:59.631Z,31.03
2017-04-11T09:44:00.324Z,21.58
2017-04-11T09:45:00.355Z,21.98
2017-04-11T09:46:00.338Z,22.25
2017-04-11T09:47:00.381Z,21.20
2017-04-11T09:48:00.366Z,19.13
2017-04-11T09:49:00.361Z,17.70
2017-04-11T09:50:00.389Z,19.90
2017-04-11T09:51:00.754Z,28.83
2017-04-11T09:52:00.735Z,21.45
2017-04-11T09:53:00.844Z,30.40
2017-04-11T09:54:00.772Z,20.13
2017-04-11T09:55:00.705Z,23.70
2017-04-11T09:56:01.070Z,20.77
2017-04-11T09:57:01.737Z,26.12
2017-04-11T09:58:01.435Z,23.50
2017-04-11T09:59:02.988Z,32.23
2017-04-11T10:00:03.338Z,39.85
2017-04-11T10:01:03.859Z,33.85
2017-04-11T10:02:03.885Z,23.80
2017-04-11T10:03:04.575Z,27.52
2017-04-11T10:04:04.570Z,27.82
2017-04-11T10:05:04.566Z,27.60
2017-04-11T10:06:05.003Z,21.92
2017-04-11T10:07:04.793Z,20.65
2017-04-11T10:08:04.534Z,26.92
2017-04-11T10:09:05.262Z,23.43
2017-04-11T10:10:06.069Z,28.72
2017-04-11T10:11:06.468Z,23.65
2017-04-11T10:12:06.215Z,23.35
2017-04-11T10:13:06.003Z,27.33
2017-04-11T10:14:06.992Z,24.17
2017-04-11T10:15:07.048Z,23.88
2017-04-11T10:16:07.415Z,22.78
2017-04-11T10:17:07.409Z,27.77
2017-04-11T10:18:07.339Z,20.72
2017-04-11T10:19:07.293Z,28.75
2017-04-11T10:20:07.280Z,20.20
2017-04-11T10:21:07.577Z,23.15
2017-04-11T10:22:07.534Z,25.68
2017-04-11T10:23:07.699Z,24.17
2017-04-11T10:24:07.651Z,28.18
2017-04-11T10:25:08.015Z,26.52
2017-04-11T10:26:09.036Z,26.83
2017-04-11T10:27:09.313Z,26.25
2017-04-11T10:28:09.310Z,21.97
2017-04-11T10:29:09.283Z,27.27
2017-04-11T10:30:09.326Z,24.22
2017-04-11T10:31:09.628Z,30.72
2017-04-11T10:32:09.605Z,25.05
2017-04-11T10:33:10.434Z,29.00
2017-04-11T10:34:10.501Z,24.80
2017-04-11T10:35:10.219Z,22.38
2017-04-11T10:36:10.917Z,26.82
2017-04-11T10:37:10.900Z,27.27
2017-04-11T10:38:10.884Z,30.15
2017-04-11T10:39:10.918Z,29.05
2017-04-11T10:40:10.939Z,21.70
2017-04-11T10:41:10.888Z,41.00
2017-04-11T10:42:11.161Z,31.72
2017-04-11T10:43:11.191Z,26.35
2017-04-11T10:44:11.163Z,20.87
2017-04-11T10:45:11.143Z,19.60
2017-04-11T10:46:11.106Z,23.73
2017-04-11T10:47:11.506Z,30.47
2017-04-11T10:48:11.580Z,23.22
2017-04-11T10:49:11.606Z,21.98
2017-04-11T10:50:11.563Z,26.08
2017-04-11T10:51:11.500Z,26.25
2017-04-11T10:52:11.658Z,23.40
2017-04-11T10:53:11.643Z,29.52
2017-04-11T10:54:11.591Z,27.28
2017-04-11T10:55:11.611Z,24.80
2017-04-11T10:56:11.624Z,28.03
2017-04-11T10:57:11.971Z,25.07
2017-04-11T10:58:11.923Z,31.30
2017-04-11T10:59:11.946Z,27.73
2017-04-11T11:00:11.989Z,28.07
2017-04-11T11:01:11.964Z,30.38
2017-04-11T11:02:12.613Z,20.67
2017-04-11T11:03:12.349Z,24.70
2017-04-11T11:04:12.125Z,25.38
2017-04-11T11:05:12.122Z,27.97
2017-04-11T11:06:12.073Z,32.65
2017-04-11T11:07:12.423Z,29.10
2017-04-11T11:08:12.384Z,23.57
2017-04-11T11:09:12.345Z,23.73
2017-04-11T11:10:12.326Z,28.10
2017-04-11T11:11:12.315Z,26.62
2017-04-11T11:12:12.616Z,25.85
2017-04-11T11:13:12.647Z,32.78
2017-04-11T11:14:12.603Z,23.15
2017-04-11T11:15:12.594Z,27.53
2017-04-11T11:16:12.637Z,24.03
2017-04-11T11:17:12.935Z,26.43
2017-04-11T11:18:12.978Z,30.68
2017-04-11T11:19:13.032Z,34.77
2017-04-11T11:20:12.990Z,24.75
2017-04-11T11:21:12.693Z,25.60
2017-04-11T11:22:12.453Z,28.37
2017-04-11T11:23:12.847Z,25.23
2017-04-11T11:24:12.811Z,24.48
2017-04-11T11:25:12.852Z,27.70
2017-04-11T11:26:12.846Z,23.05
2017-04-11T11:27:12.880Z,26.28
2017-04-11T11:28:13.194Z,28.67
2017-04-11T11:29:13.183Z,23.48
2017-04-11T11:30:13.225Z,24.37
2017-04-11T11:31:13.999Z,25.05
2017-04-11T11:32:13.945Z,23.13
2017-04-11T11:33:15.010Z,31.32
2017-04-11T11:34:14.799Z,22.73
2017-04-11T11:35:14.600Z,29.17
2017-04-11T11:36:14.362Z,26.73
2017-04-11T11:37:14.192Z,30.82
2017-04-11T11:38:15.237Z,31.32
2017-04-11T11:39:15.312Z,24.63
2017-04-11T11:40:15.311Z,25.30
2017-04-11T11:41:15.332Z,29.15
2017-04-11T11:42:16.073Z,23.98
2017-04-11T11:43:16.391Z,24.12
2017-04-11T11:44:16.367Z,26.12
2017-04-11T11:45:16.424Z,24.75
2017-04-11T11:46:16.419Z,23.43
2017-04-11T11:47:16.432Z,30.70
2017-04-11T11:48:16.888Z,27.47
2017-04-11T11:49:16.852Z,27.22
2017-04-11T11:50:16.838Z,31.80
2017-04-11T11:51:16.870Z,40.67
2017-04-11T11:52:16.637Z,22.58
2017-04-11T11:53:17.686Z,29.63
2017-04-11T11:54:17.736Z,30.90
2017-04-11T11:55:17.822Z,27.10
2017-04-11T11:56:17.835Z,26.78
2017-04-11T11:57:17.801Z,28.53
2017-04-11T11:58:17.785Z,36.33
2017-04-11T11:59:18.174Z,41.05
2017-04-11T12:00:18.201Z,24.57
2017-04-11T12:01:18.201Z,32.12
2017-04-11T12:02:18.178Z,29.80
2017-04-11T12:03:18.160Z,24.35
2017-04-11T12:04:18.266Z,25.32
2017-04-11T12:05:18.380Z,26.65
2017-04-11T12:06:18.426Z,33.05
2017-04-11T12:07:18.400Z,33.28
2017-04-11T12:08:18.447Z,22.30
2017-04-11T12:09:18.853Z,22.20
2017-04-11T12:10:18.837Z,25.37
2017-04-11T12:11:18.597Z,29.48
2017-04-11T12:12:18.573Z,24.22
2017-04-11T12:13:18.642Z,25.82
2017-04-11T12:14:18.646Z,30.20
2017-04-11T12:15:19.096Z,35.88
2017-04-11T12:16:19.132Z,26.42
2017-04-11T12:17:19.898Z,29.85
2017-04-11T12:18:19.918Z,26.37
2017-04-11T12:19:19.975Z,33.52
2017-04-11T12:20:21.080Z,26.90
2017-04-11T12:21:21.055Z,26.58
2017-04-11T12:22:21.012Z,30.10
2017-04-11T12:23:20.936Z,26.88
2017-04-11T12:24:20.877Z,23.82
2017-04-11T12:25:21.300Z,27.72
2017-04-11T12:26:21.029Z,26.87
2017-04-11T12:27:21.124Z,25.88
2017-04-11T12:28:21.145Z,27.17
2017-04-11T12:29:21.177Z,23.15
2017-04-11T12:30:21.643Z,28.77
2017-04-11T12:31:21.641Z,35.03
2017-04-11T12:32:22.373Z,27.08
2017-04-11T12:33:22.092Z,21.43
2017-04-11T12:34:22.134Z,26.10
2017-04-11T12:35:22.477Z,20.65
2017-04-11T12:36:22.473Z,23.15
2017-04-11T12:37:22.445Z,21.92
2017-04-11T12:38:22.436Z,27.83
2017-04-11T12:39:23.172Z,24.23
2017-04-11T12:40:23.500Z,22.17
2017-04-11T12:41:23.481Z,27.73
2017-04-11T12:42:24.255Z,29.80
2017-04-11T12:43:24.229Z,22.22
2017-04-11T12:44:24.249Z,30.32
2017-04-11T12:45:24.623Z,22.35
2017-04-11T12:46:24.688Z,27.28
2017-04-11T12:47:24.734Z,24.40
2017-04-11T12:48:24.728Z,20.57
2017-04-11T12:49:24.732Z,24.18
2017-04-11T12:50:25.147Z,22.60
2017-04-11T12:51:25.163Z,26.07
2017-04-11T12:52:25.069Z,28.35
2017-04-11T12:53:25.040Z,22.67
2017-04-11T12:54:25.015Z,26.82
2017-04-11T12:55:25.381Z,32.48